sensor_id;sensor_type;location;lat;lon;timestamp;P1;durP1;ratioP1;P2;durP2;ratioP2
2784;SDS011;57944;48.722;9.316;2024-03-23T00:56:02;15.30;;;10.07;;
2784;SDS011;57944;48.722;9.316;2024-03-23T00:58:29;15.87;;;10.80;;
2784;SDS011;57944;48.722;9.316;2024-03-23T01:00:56;15.33;;;11.00;;
2784;SDS011;57944;48.722;9.316;2024-03-23T01:03:23;16.77;;;11.70;;
2784;SDS011;57944;48.722;9.316;2024-03-23T01:05:50;15.20;;;10.00;;
2784;SDS011;57944;48.722;9.316;2024-03-23T01:08:17;15.47;;;10.60;;
2784;SDS011;57944;48.722;9.316;2024-03-23T01:10:55;15.23;;;10.33;;
2784;SDS011;57944;48.722;9.316;2024-03-23T01:13:23;16.40;;;10.87;;
2784;SDS011;57944;48.722;9.316;2024-03-23T01:15:50;15.83;;;11.33;;
2784;SDS011;57944;48.722;9.316;2024-03-23T01:18:17;15.40;;;10.80;;
2784;SDS011;57944;48.722;9.316;2024-03-23T01:20:44;16.33;;;10.60;;
2784;SDS011;57944;48.722;9.316;2024-03-23T01:23:13;16.00;;;10.23;;
2784;SDS011;57944;48.722;9.316;2024-03-23T01:25:40;11.67;;;8.80;;
2784;SDS011;57944;48.722;9.316;2024-03-23T01:28:10;16.20;;;10.50;;
2784;SDS011;57944;48.722;9.316;2024-03-23T01:30:36;13.77;;;9.73;;
2784;SDS011;57944;48.722;9.316;2024-03-23T01:33:03;22.47;;;12.27;;
2784;SDS011;57944;48.722;9.316;2024-03-23T01:35:30;14.30;;;10.40;;
2784;SDS011;57944;48.722;9.316;2024-03-23T01:37:57;14.60;;;11.00;;
2784;SDS011;57944;48.722;9.316;2024-03-23T01:40:24;17.80;;;11.53;;
2784;SDS011;57944;48.722;9.316;2024-03-23T01:42:54;13.30;;;11.03;;
2784;SDS011;57944;48.722;9.316;2024-03-23T01:45:25;12.97;;;10.30;;
2784;SDS011;57944;48.722;9.316;2024-03-23T01:47:52;15.07;;;10.93;;
2784;SDS011;57944;48.722;9.316;2024-03-23T01:50:19;16.77;;;11.13;;
2784;SDS011;57944;48.722;9.316;2024-03-23T01:52:46;17.30;;;10.77;;
2784;SDS011;57944;48.722;9.316;2024-03-23T01:55:14;14.97;;;10.50;;
2784;SDS011;57944;48.722;9.316;2024-03-23T01:57:41;17.30;;;10.60;;
2784;SDS011;57944;48.722;9.316;2024-03-23T02:00:08;17.17;;;10.70;;
2784;SDS011;57944;48.722;9.316;2024-03-23T02:02:45;17.93;;;11.20;;
2784;SDS011;57944;48.722;9.316;2024-03-23T02:05:13;19.23;;;10.47;;
2784;SDS011;57944;48.722;9.316;2024-03-23T02:07:40;14.20;;;10.13;;
2784;SDS011;57944;48.722;9.316;2024-03-23T02:10:08;18.03;;;10.50;;
2784;SDS011;57944;48.722;9.316;2024-03-23T02:12:36;15.67;;;9.80;;
2784;SDS011;57944;48.722;9.316;2024-03-23T02:15:03;15.13;;;10.77;;
2784;SDS011;57944;48.722;9.316;2024-03-23T02:17:31;14.80;;;10.47;;
2784;SDS011;57944;48.722;9.316;2024-03-23T02:20:02;15.20;;;10.00;;
2784;SDS011;57944;48.722;9.316;2024-03-23T02:22:35;14.17;;;9.33;;
2784;SDS011;57944;48.722;9.316;2024-03-23T02:25:05;14.90;;;9.37;;
2784;SDS011;57944;48.722;9.316;2024-03-23T02:27:33;12.67;;;8.53;;
2784;SDS011;57944;48.722;9.316;2024-03-23T02:30:01;15.97;;;10.20;;
2784;SDS011;57944;48.722;9.316;2024-03-23T02:32:29;13.60;;;9.60;;
2784;SDS011;57944;48.722;9.316;2024-03-23T02:34:56;11.33;;;8.20;;
2784;SDS011;57944;48.722;9.316;2024-03-23T02:37:23;15.57;;;8.63;;
2784;SDS011;57944;48.722;9.316;2024-03-23T02:39:49;17.53;;;9.50;;
2784;SDS011;57944;48.722;9.316;2024-03-23T02:42:19;9.07;;;8.17;;
2784;SDS011;57944;48.722;9.316;2024-03-23T02:44:46;14.80;;;8.93;;
2784;SDS011;57944;48.722;9.316;2024-03-23T02:47:13;10.83;;;8.10;;
2784;SDS011;57944;48.722;9.316;2024-03-23T02:49:40;12.63;;;9.40;;
2784;SDS011;57944;48.722;9.316;2024-03-23T02:52:07;17.87;;;8.20;;
2784;SDS011;57944;48.722;9.316;2024-03-23T02:54:33;12.60;;;7.40;;
2784;SDS011;57944;48.722;9.316;2024-03-23T02:57:00;10.30;;;7.30;;
2784;SDS011;57944;48.722;9.316;2024-03-23T02:59:29;11.27;;;7.97;;
2784;SDS011;57944;48.722;9.316;2024-03-23T03:01:56;11.07;;;8.07;;
2784;SDS011;57944;48.722;9.316;2024-03-23T03:04:23;12.47;;;7.63;;
2784;SDS011;57944;48.722;9.316;2024-03-23T03:06:50;11.43;;;8.50;;
2784;SDS011;57944;48.722;9.316;2024-03-23T03:09:17;12.03;;;8.37;;
2784;SDS011;57944;48.722;9.316;2024-03-23T03:11:44;9.90;;;7.90;;
2784;SDS011;57944;48.722;9.316;2024-03-23T03:14:11;11.30;;;7.73;;
2784;SDS011;57944;48.722;9.316;2024-03-23T03:16:40;12.60;;;6.97;;
2784;SDS011;57944;48.722;9.316;2024-03-23T03:19:07;9.93;;;7.47;;
2784;SDS011;57944;48.722;9.316;2024-03-23T03:21:34;8.47;;;6.73;;
2784;SDS011;57944;48.722;9.316;2024-03-23T03:24:01;11.13;;;6.30;;
2784;SDS011;57944;48.722;9.316;2024-03-23T03:26:28;9.27;;;5.93;;
2784;SDS011;57944;48.722;9.316;2024-03-23T03:28:55;8.00;;;5.90;;
2784;SDS011;57944;48.722;9.316;2024-03-23T03:34:27;7.67;;;4.57;;
2784;SDS011;57944;48.722;9.316;2024-03-23T03:36:54;6.23;;;4.93;;
2784;SDS011;57944;48.722;9.316;2024-03-23T03:39:22;6.33;;;4.33;;
2784;SDS011;57944;48.722;9.316;2024-03-23T03:41:49;8.60;;;5.50;;
2784;SDS011;57944;48.722;9.316;2024-03-23T03:44:16;7.10;;;4.83;;
2784;SDS011;57944;48.722;9.316;2024-03-23T03:46:43;8.50;;;5.80;;
2784;SDS011;57944;48.722;9.316;2024-03-23T03:49:10;9.43;;;4.87;;
2784;SDS011;57944;48.722;9.316;2024-03-23T03:51:39;6.90;;;5.00;;
2784;SDS011;57944;48.722;9.316;2024-03-23T03:54:06;8.30;;;4.13;;
2784;SDS011;57944;48.722;9.316;2024-03-23T03:56:33;5.97;;;4.93;;
2784;SDS011;57944;48.722;9.316;2024-03-23T03:59:00;8.63;;;5.07;;
2784;SDS011;57944;48.722;9.316;2024-03-23T04:01:27;5.60;;;4.23;;
2784;SDS011;57944;48.722;9.316;2024-03-23T04:03:54;9.80;;;5.63;;
2784;SDS011;57944;48.722;9.316;2024-03-23T04:06:21;10.27;;;5.80;;
2784;SDS011;57944;48.722;9.316;2024-03-23T04:08:51;6.40;;;5.47;;
2784;SDS011;57944;48.722;9.316;2024-03-23T04:11:17;8.30;;;5.57;;
2784;SDS011;57944;48.722;9.316;2024-03-23T04:13:44;5.27;;;4.30;;
2784;SDS011;57944;48.722;9.316;2024-03-23T04:16:11;12.10;;;4.20;;
2784;SDS011;57944;48.722;9.316;2024-03-23T04:18:39;7.93;;;5.37;;
2784;SDS011;57944;48.722;9.316;2024-03-23T04:21:05;9.30;;;6.03;;
2784;SDS011;57944;48.722;9.316;2024-03-23T04:23:32;11.70;;;5.33;;
2784;SDS011;57944;48.722;9.316;2024-03-23T04:26:05;7.80;;;5.47;;
2784;SDS011;57944;48.722;9.316;2024-03-23T04:28:32;6.97;;;5.10;;
2784;SDS011;57944;48.722;9.316;2024-03-23T04:31:02;10.07;;;5.93;;
2784;SDS011;57944;48.722;9.316;2024-03-23T04:33:29;9.23;;;4.70;;
2784;SDS011;57944;48.722;9.316;2024-03-23T04:35:56;9.40;;;6.03;;
2784;SDS011;57944;48.722;9.316;2024-03-23T04:38:23;8.13;;;4.23;;
2784;SDS011;57944;48.722;9.316;2024-03-23T04:40:53;11.70;;;5.97;;
2784;SDS011;57944;48.722;9.316;2024-03-23T04:43:23;11.20;;;6.77;;
2784;SDS011;57944;48.722;9.316;2024-03-23T04:45:50;7.90;;;5.50;;
2784;SDS011;57944;48.722;9.316;2024-03-23T04:48:19;9.47;;;6.33;;
2784;SDS011;57944;48.722;9.316;2024-03-23T04:50:46;8.40;;;5.80;;
2784;SDS011;57944;48.722;9.316;2024-03-23T04:53:13;6.87;;;5.10;;
2784;SDS011;57944;48.722;9.316;2024-03-23T04:55:40;19.30;;;7.77;;
2784;SDS011;57944;48.722;9.316;2024-03-23T04:58:07;10.47;;;6.80;;
2784;SDS011;57944;48.722;9.316;2024-03-23T05:00:36;14.30;;;8.47;;
2784;SDS011;57944;48.722;9.316;2024-03-23T05:03:04;12.90;;;9.13;;
2784;SDS011;57944;48.722;9.316;2024-03-23T05:05:31;9.80;;;7.53;;
2784;SDS011;57944;48.722;9.316;2024-03-23T05:07:58;10.83;;;8.43;;
2784;SDS011;57944;48.722;9.316;2024-03-23T05:10:25;11.40;;;8.13;;
2784;SDS011;57944;48.722;9.316;2024-03-23T05:12:52;20.97;;;8.47;;
2784;SDS011;57944;48.722;9.316;2024-03-23T05:15:19;18.80;;;8.50;;
2784;SDS011;57944;48.722;9.316;2024-03-23T05:17:48;14.90;;;9.63;;
2784;SDS011;57944;48.722;9.316;2024-03-23T05:20:15;14.13;;;8.60;;
2784;SDS011;57944;48.722;9.316;2024-03-23T05:22:42;10.90;;;8.17;;
2784;SDS011;57944;48.722;9.316;2024-03-23T05:25:09;14.33;;;8.70;;
2784;SDS011;57944;48.722;9.316;2024-03-23T05:27:35;9.87;;;7.50;;
2784;SDS011;57944;48.722;9.316;2024-03-23T05:30:03;12.77;;;9.50;;
2784;SDS011;57944;48.722;9.316;2024-03-23T05:32:31;18.10;;;11.00;;
2784;SDS011;57944;48.722;9.316;2024-03-23T05:35:00;17.87;;;11.30;;
2784;SDS011;57944;48.722;9.316;2024-03-23T05:37:27;17.37;;;11.30;;
2784;SDS011;57944;48.722;9.316;2024-03-23T05:39:54;29.60;;;14.43;;
2784;SDS011;57944;48.722;9.316;2024-03-23T05:42:21;22.87;;;14.80;;
2784;SDS011;57944;48.722;9.316;2024-03-23T05:44:48;26.80;;;17.20;;
2784;SDS011;57944;48.722;9.316;2024-03-23T05:47:15;21.97;;;14.43;;
2784;SDS011;57944;48.722;9.316;2024-03-23T05:49:42;24.10;;;14.97;;
2784;SDS011;57944;48.722;9.316;2024-03-23T05:52:11;28.47;;;18.43;;
2784;SDS011;57944;48.722;9.316;2024-03-23T05:54:39;27.80;;;15.20;;
2784;SDS011;57944;48.722;9.316;2024-03-23T05:57:06;26.90;;;17.60;;
2784;SDS011;57944;48.722;9.316;2024-03-23T05:59:33;29.80;;;16.37;;
2784;SDS011;57944;48.722;9.316;2024-03-23T06:02:00;25.47;;;15.30;;
2784;SDS011;57944;48.722;9.316;2024-03-23T06:04:27;23.40;;;13.87;;
2784;SDS011;57944;48.722;9.316;2024-03-23T06:06:54;24.70;;;14.97;;
2784;SDS011;57944;48.722;9.316;2024-03-23T06:09:23;22.60;;;14.17;;
2784;SDS011;57944;48.722;9.316;2024-03-23T06:11:50;24.50;;;15.73;;
2784;SDS011;57944;48.722;9.316;2024-03-23T06:14:17;32.53;;;17.83;;
2784;SDS011;57944;48.722;9.316;2024-03-23T06:16:44;25.63;;;16.57;;
2784;SDS011;57944;48.722;9.316;2024-03-23T06:19:11;26.80;;;15.43;;
2784;SDS011;57944;48.722;9.316;2024-03-23T06:21:41;22.20;;;12.57;;
2784;SDS011;57944;48.722;9.316;2024-03-23T06:24:09;20.03;;;10.13;;
2784;SDS011;57944;48.722;9.316;2024-03-23T06:26:39;16.50;;;9.60;;
2784;SDS011;57944;48.722;9.316;2024-03-23T06:29:05;10.70;;;7.33;;
2784;SDS011;57944;48.722;9.316;2024-03-23T06:31:33;9.80;;;5.77;;
2784;SDS011;57944;48.722;9.316;2024-03-23T06:34:00;10.17;;;5.77;;
2784;SDS011;57944;48.722;9.316;2024-03-23T06:36:27;13.10;;;5.37;;
2784;SDS011;57944;48.722;9.316;2024-03-23T06:38:54;6.00;;;3.70;;
2784;SDS011;57944;48.722;9.316;2024-03-23T06:41:20;5.30;;;2.70;;
2784;SDS011;57944;48.722;9.316;2024-03-23T06:43:50;8.37;;;4.27;;
2784;SDS011;57944;48.722;9.316;2024-03-23T06:46:17;6.30;;;3.03;;
2784;SDS011;57944;48.722;9.316;2024-03-23T06:48:44;4.53;;;2.13;;
2784;SDS011;57944;48.722;9.316;2024-03-23T06:51:11;3.20;;;1.53;;
2784;SDS011;57944;48.722;9.316;2024-03-23T06:53:38;3.47;;;1.80;;
2784;SDS011;57944;48.722;9.316;2024-03-23T06:56:05;2.00;;;1.03;;
2784;SDS011;57944;48.722;9.316;2024-03-23T06:58:32;2.27;;;1.20;;
2784;SDS011;57944;48.722;9.316;2024-03-23T07:01:02;1.83;;;1.03;;
2784;SDS011;57944;48.722;9.316;2024-03-23T07:03:29;1.90;;;0.93;;
2784;SDS011;57944;48.722;9.316;2024-03-23T07:05:57;2.20;;;1.00;;
2784;SDS011;57944;48.722;9.316;2024-03-23T07:08:24;2.00;;;1.00;;
2784;SDS011;57944;48.722;9.316;2024-03-23T07:10:51;2.47;;;1.00;;
2784;SDS011;57944;48.722;9.316;2024-03-23T07:13:18;2.00;;;0.90;;
2784;SDS011;57944;48.722;9.316;2024-03-23T07:15:50;1.93;;;0.80;;
2784;SDS011;57944;48.722;9.316;2024-03-23T07:18:20;3.13;;;0.90;;
2784;SDS011;57944;48.722;9.316;2024-03-23T07:20:53;2.33;;;0.83;;
2784;SDS011;57944;48.722;9.316;2024-03-23T07:23:20;2.20;;;1.17;;
2784;SDS011;57944;48.722;9.316;2024-03-23T07:25:55;2.33;;;1.10;;
2784;SDS011;57944;48.722;9.316;2024-03-23T07:28:23;1.60;;;0.70;;
2784;SDS011;57944;48.722;9.316;2024-03-23T07:31:00;2.40;;;0.97;;
2784;SDS011;57944;48.722;9.316;2024-03-23T07:33:30;2.97;;;1.07;;
2784;SDS011;57944;48.722;9.316;2024-03-23T07:35:58;6.13;;;2.50;;
2784;SDS011;57944;48.722;9.316;2024-03-23T07:38:26;2.00;;;0.90;;
2784;SDS011;57944;48.722;9.316;2024-03-23T07:41:02;2.17;;;0.80;;
2784;SDS011;57944;48.722;9.316;2024-03-23T07:43:29;2.20;;;1.00;;
2784;SDS011;57944;48.722;9.316;2024-03-23T07:45:56;1.93;;;0.90;;
2784;SDS011;57944;48.722;9.316;2024-03-23T07:48:23;2.00;;;0.90;;
2784;SDS011;57944;48.722;9.316;2024-03-23T07:51:02;2.00;;;0.80;;
2784;SDS011;57944;48.722;9.316;2024-03-23T07:53:30;2.40;;;0.83;;
2784;SDS011;57944;48.722;9.316;2024-03-23T07:55:58;2.37;;;0.90;;
2784;SDS011;57944;48.722;9.316;2024-03-23T07:58:26;1.80;;;0.70;;
2784;SDS011;57944;48.722;9.316;2024-03-23T08:00:54;1.83;;;0.70;;
2784;SDS011;57944;48.722;9.316;2024-03-23T08:03:21;1.90;;;0.90;;
2784;SDS011;57944;48.722;9.316;2024-03-23T08:05:48;2.70;;;2.40;;
2784;SDS011;57944;48.722;9.316;2024-03-23T08:08:18;2.07;;;0.70;;
2784;SDS011;57944;48.722;9.316;2024-03-23T08:10:48;1.60;;;0.70;;
2784;SDS011;57944;48.722;9.316;2024-03-23T08:13:15;1.90;;;0.70;;
2784;SDS011;57944;48.722;9.316;2024-03-23T08:15:43;1.73;;;0.70;;
2784;SDS011;57944;48.722;9.316;2024-03-23T08:18:10;1.70;;;0.70;;
2784;SDS011;57944;48.722;9.316;2024-03-23T08:20:37;2.40;;;1.00;;
2784;SDS011;57944;48.722;9.316;2024-03-23T08:23:05;2.47;;;1.10;;
2784;SDS011;57944;48.722;9.316;2024-03-23T08:25:35;1.90;;;0.90;;
2784;SDS011;57944;48.722;9.316;2024-03-23T08:28:02;2.27;;;0.80;;
2784;SDS011;57944;48.722;9.316;2024-03-23T08:30:29;1.80;;;0.97;;
2784;SDS011;57944;48.722;9.316;2024-03-23T08:32:56;2.50;;;1.10;;
2784;SDS011;57944;48.722;9.316;2024-03-23T08:35:23;2.60;;;1.30;;
2784;SDS011;57944;48.722;9.316;2024-03-23T08:37:50;3.20;;;1.57;;
2784;SDS011;57944;48.722;9.316;2024-03-23T08:40:17;3.50;;;2.20;;
2784;SDS011;57944;48.722;9.316;2024-03-23T08:42:47;9.63;;;5.83;;
2784;SDS011;57944;48.722;9.316;2024-03-23T08:45:13;2.70;;;1.10;;
2784;SDS011;57944;48.722;9.316;2024-03-23T08:47:40;2.90;;;1.60;;
2784;SDS011;57944;48.722;9.316;2024-03-23T08:50:08;2.43;;;1.80;;
2784;SDS011;57944;48.722;9.316;2024-03-23T08:52:35;2.50;;;1.50;;
2784;SDS011;57944;48.722;9.316;2024-03-23T08:55:02;2.60;;;1.50;;
2784;SDS011;57944;48.722;9.316;2024-03-23T08:57:29;3.30;;;2.13;;
2784;SDS011;57944;48.722;9.316;2024-03-23T08:59:58;3.00;;;1.50;;
2784;SDS011;57944;48.722;9.316;2024-03-23T09:02:25;3.50;;;1.77;;
2784;SDS011;57944;48.722;9.316;2024-03-23T09:04:52;3.20;;;1.93;;
2784;SDS011;57944;48.722;9.316;2024-03-23T09:07:19;4.10;;;1.53;;
2784;SDS011;57944;48.722;9.316;2024-03-23T09:09:46;3.57;;;1.87;;
2784;SDS011;57944;48.722;9.316;2024-03-23T09:12:13;2.70;;;1.50;;
2784;SDS011;57944;48.722;9.316;2024-03-23T09:14:40;3.83;;;1.30;;
2784;SDS011;57944;48.722;9.316;2024-03-23T09:17:09;3.70;;;1.83;;
2784;SDS011;57944;48.722;9.316;2024-03-23T09:19:36;5.20;;;1.73;;
2784;SDS011;57944;48.722;9.316;2024-03-23T09:22:04;7.77;;;5.53;;
2784;SDS011;57944;48.722;9.316;2024-03-23T09:24:31;4.33;;;1.90;;
2784;SDS011;57944;48.722;9.316;2024-03-23T09:26:57;4.73;;;1.93;;
2784;SDS011;57944;48.722;9.316;2024-03-23T09:29:24;3.90;;;2.00;;
2784;SDS011;57944;48.722;9.316;2024-03-23T09:31:51;3.97;;;2.27;;
2784;SDS011;57944;48.722;9.316;2024-03-23T09:34:21;5.63;;;2.63;;
2784;SDS011;57944;48.722;9.316;2024-03-23T09:36:50;6.20;;;3.10;;
2784;SDS011;57944;48.722;9.316;2024-03-23T09:39:17;6.40;;;2.60;;
2784;SDS011;57944;48.722;9.316;2024-03-23T09:41:44;7.77;;;3.00;;
2784;SDS011;57944;48.722;9.316;2024-03-23T09:44:11;4.77;;;2.73;;
2784;SDS011;57944;48.722;9.316;2024-03-23T09:46:38;9.40;;;3.30;;
2784;SDS011;57944;48.722;9.316;2024-03-23T09:49:06;8.27;;;3.50;;
2784;SDS011;57944;48.722;9.316;2024-03-23T09:51:38;7.90;;;3.37;;
2784;SDS011;57944;48.722;9.316;2024-03-23T09:54:05;12.40;;;3.70;;
2784;SDS011;57944;48.722;9.316;2024-03-23T09:56:33;17.37;;;4.63;;
2784;SDS011;57944;48.722;9.316;2024-03-23T09:59:00;7.20;;;3.70;;
2784;SDS011;57944;48.722;9.316;2024-03-23T10:01:29;10.50;;;4.70;;
2784;SDS011;57944;48.722;9.316;2024-03-23T10:03:56;8.33;;;3.17;;
2784;SDS011;57944;48.722;9.316;2024-03-23T10:06:23;6.33;;;3.50;;
2784;SDS011;57944;48.722;9.316;2024-03-23T10:08:53;10.43;;;3.80;;
2784;SDS011;57944;48.722;9.316;2024-03-23T10:11:20;6.80;;;3.40;;
2784;SDS011;57944;48.722;9.316;2024-03-23T10:13:47;11.50;;;4.60;;
2784;SDS011;57944;48.722;9.316;2024-03-23T10:16:20;9.70;;;4.23;;
2784;SDS011;57944;48.722;9.316;2024-03-23T10:18:48;5.50;;;3.97;;
2784;SDS011;57944;48.722;9.316;2024-03-23T10:21:15;7.37;;;4.13;;
2784;SDS011;57944;48.722;9.316;2024-03-23T10:23:43;11.10;;;4.63;;
2784;SDS011;57944;48.722;9.316;2024-03-23T10:26:17;8.80;;;3.63;;
2784;SDS011;57944;48.722;9.316;2024-03-23T10:28:51;6.77;;;4.00;;
2784;SDS011;57944;48.722;9.316;2024-03-23T10:31:25;10.67;;;4.87;;
2784;SDS011;57944;48.722;9.316;2024-03-23T10:33:52;8.00;;;3.87;;
2784;SDS011;57944;48.722;9.316;2024-03-23T10:36:20;6.60;;;4.27;;
2784;SDS011;57944;48.722;9.316;2024-03-23T10:38:47;5.80;;;2.80;;
2784;SDS011;57944;48.722;9.316;2024-03-23T10:41:19;5.20;;;3.47;;
2784;SDS011;57944;48.722;9.316;2024-03-23T10:43:48;6.40;;;3.63;;
2784;SDS011;57944;48.722;9.316;2024-03-23T10:46:15;11.73;;;4.03;;
2784;SDS011;57944;48.722;9.316;2024-03-23T10:48:42;11.00;;;3.67;;
2784;SDS011;57944;48.722;9.316;2024-03-23T10:51:10;7.40;;;3.57;;
2784;SDS011;57944;48.722;9.316;2024-03-23T10:53:39;9.03;;;3.80;;
2784;SDS011;57944;48.722;9.316;2024-03-23T10:56:06;10.23;;;4.17;;
2784;SDS011;57944;48.722;9.316;2024-03-23T10:58:39;12.23;;;3.67;;
2784;SDS011;57944;48.722;9.316;2024-03-23T11:01:10;9.37;;;4.17;;
2784;SDS011;57944;48.722;9.316;2024-03-23T11:03:38;6.00;;;3.40;;
2784;SDS011;57944;48.722;9.316;2024-03-23T11:06:10;8.57;;;3.83;;
2784;SDS011;57944;48.722;9.316;2024-03-23T11:09:03;12.47;;;4.20;;
2784;SDS011;57944;48.722;9.316;2024-03-23T11:11:50;9.40;;;5.80;;
2784;SDS011;57944;48.722;9.316;2024-03-23T11:14:21;4.43;;;3.00;;
2784;SDS011;57944;48.722;9.316;2024-03-23T11:16:51;3.77;;;2.30;;
2784;SDS011;57944;48.722;9.316;2024-03-23T11:19:35;4.90;;;2.70;;
2784;SDS011;57944;48.722;9.316;2024-03-23T11:22:03;5.10;;;2.50;;
2784;SDS011;57944;48.722;9.316;2024-03-23T11:24:33;6.60;;;3.37;;
2784;SDS011;57944;48.722;9.316;2024-03-23T11:27:00;7.63;;;3.10;;
2784;SDS011;57944;48.722;9.316;2024-03-23T11:29:27;7.33;;;3.70;;
2784;SDS011;57944;48.722;9.316;2024-03-23T11:31:54;5.30;;;3.30;;
2784;SDS011;57944;48.722;9.316;2024-03-23T11:34:21;5.83;;;3.20;;
2784;SDS011;57944;48.722;9.316;2024-03-23T11:36:49;10.33;;;3.20;;
2784;SDS011;57944;48.722;9.316;2024-03-23T11:39:16;7.70;;;2.60;;
2784;SDS011;57944;48.722;9.316;2024-03-23T11:41:48;6.23;;;3.23;;
2784;SDS011;57944;48.722;9.316;2024-03-23T11:44:16;6.37;;;3.70;;
2784;SDS011;57944;48.722;9.316;2024-03-23T11:46:43;6.83;;;3.13;;
2784;SDS011;57944;48.722;9.316;2024-03-23T11:49:20;9.50;;;3.67;;
2784;SDS011;57944;48.722;9.316;2024-03-23T11:51:48;6.17;;;3.30;;
2784;SDS011;57944;48.722;9.316;2024-03-23T11:54:15;6.07;;;3.63;;
2784;SDS011;57944;48.722;9.316;2024-03-23T11:56:58;5.00;;;3.43;;
2784;SDS011;57944;48.722;9.316;2024-03-23T11:59:31;6.37;;;3.70;;
2784;SDS011;57944;48.722;9.316;2024-03-23T12:01:58;6.40;;;2.80;;
2784;SDS011;57944;48.722;9.316;2024-03-23T12:04:26;6.23;;;2.60;;
2784;SDS011;57944;48.722;9.316;2024-03-23T12:07:08;5.37;;;3.20;;
2784;SDS011;57944;48.722;9.316;2024-03-23T12:09:36;5.87;;;2.87;;
2784;SDS011;57944;48.722;9.316;2024-03-23T12:12:10;6.33;;;2.60;;
2784;SDS011;57944;48.722;9.316;2024-03-23T12:14:40;3.97;;;2.90;;
2784;SDS011;57944;48.722;9.316;2024-03-23T12:17:08;3.83;;;2.00;;
2784;SDS011;57944;48.722;9.316;2024-03-23T12:19:36;7.23;;;2.90;;
2784;SDS011;57944;48.722;9.316;2024-03-23T12:22:03;3.50;;;2.33;;
2784;SDS011;57944;48.722;9.316;2024-03-23T12:24:31;4.63;;;2.07;;
2784;SDS011;57944;48.722;9.316;2024-03-23T12:26:59;7.50;;;2.70;;
2784;SDS011;57944;48.722;9.316;2024-03-23T12:29:30;6.97;;;2.50;;
2784;SDS011;57944;48.722;9.316;2024-03-23T12:31:59;7.10;;;2.20;;
2784;SDS011;57944;48.722;9.316;2024-03-23T12:34:26;4.67;;;2.03;;
2784;SDS011;57944;48.722;9.316;2024-03-23T12:36:53;5.10;;;2.30;;
2784;SDS011;57944;48.722;9.316;2024-03-23T12:39:21;4.63;;;2.40;;
2784;SDS011;57944;48.722;9.316;2024-03-23T12:41:48;3.97;;;2.10;;
2784;SDS011;57944;48.722;9.316;2024-03-23T12:44:15;4.80;;;2.03;;
2784;SDS011;57944;48.722;9.316;2024-03-23T12:46:45;8.47;;;2.97;;
2784;SDS011;57944;48.722;9.316;2024-03-23T12:49:12;7.60;;;2.40;;
2784;SDS011;57944;48.722;9.316;2024-03-23T12:51:39;10.17;;;3.00;;
2784;SDS011;57944;48.722;9.316;2024-03-23T12:54:18;8.00;;;2.40;;
2784;SDS011;57944;48.722;9.316;2024-03-23T12:56:46;6.93;;;2.60;;
2784;SDS011;57944;48.722;9.316;2024-03-23T12:59:13;7.43;;;2.13;;
2784;SDS011;57944;48.722;9.316;2024-03-23T13:01:40;4.67;;;2.20;;
2784;SDS011;57944;48.722;9.316;2024-03-23T13:04:09;7.30;;;3.10;;
2784;SDS011;57944;48.722;9.316;2024-03-23T13:06:36;10.67;;;4.30;;
2784;SDS011;57944;48.722;9.316;2024-03-23T13:09:03;5.37;;;2.20;;
2784;SDS011;57944;48.722;9.316;2024-03-23T13:11:30;6.80;;;3.27;;
2784;SDS011;57944;48.722;9.316;2024-03-23T13:13:57;6.80;;;2.73;;
2784;SDS011;57944;48.722;9.316;2024-03-23T13:16:24;6.50;;;3.30;;
2784;SDS011;57944;48.722;9.316;2024-03-23T13:18:51;7.17;;;3.30;;
2784;SDS011;57944;48.722;9.316;2024-03-23T13:21:21;16.07;;;3.40;;
2784;SDS011;57944;48.722;9.316;2024-03-23T13:23:48;7.10;;;2.70;;
2784;SDS011;57944;48.722;9.316;2024-03-23T13:26:15;19.80;;;4.30;;
2784;SDS011;57944;48.722;9.316;2024-03-23T13:28:42;10.60;;;3.03;;
2784;SDS011;57944;48.722;9.316;2024-03-23T13:31:09;8.70;;;3.17;;
2784;SDS011;57944;48.722;9.316;2024-03-23T13:33:36;5.70;;;2.33;;
2784;SDS011;57944;48.722;9.316;2024-03-23T13:36:03;5.33;;;3.00;;
2784;SDS011;57944;48.722;9.316;2024-03-23T13:38:33;5.13;;;2.63;;
2784;SDS011;57944;48.722;9.316;2024-03-23T13:41:00;6.57;;;2.70;;
2784;SDS011;57944;48.722;9.316;2024-03-23T13:43:28;4.17;;;2.00;;
2784;SDS011;57944;48.722;9.316;2024-03-23T13:45:55;4.20;;;1.50;;
2784;SDS011;57944;48.722;9.316;2024-03-23T13:48:23;7.67;;;1.47;;
2784;SDS011;57944;48.722;9.316;2024-03-23T14:00:40;7.83;;;1.87;;
2784;SDS011;57944;48.722;9.316;2024-03-23T14:03:08;5.60;;;1.60;;
2784;SDS011;57944;48.722;9.316;2024-03-23T14:05:36;3.43;;;1.77;;
2784;SDS011;57944;48.722;9.316;2024-03-23T14:08:04;3.23;;;1.27;;
2784;SDS011;57944;48.722;9.316;2024-03-23T14:10:31;3.13;;;1.70;;
2784;SDS011;57944;48.722;9.316;2024-03-23T14:12:58;3.77;;;1.80;;
2784;SDS011;57944;48.722;9.316;2024-03-23T14:15:25;7.60;;;1.80;;
2784;SDS011;57944;48.722;9.316;2024-03-23T14:17:54;7.60;;;2.40;;
2784;SDS011;57944;48.722;9.316;2024-03-23T14:20:22;4.30;;;1.90;;
2784;SDS011;57944;48.722;9.316;2024-03-23T14:22:49;4.50;;;2.17;;
2784;SDS011;57944;48.722;9.316;2024-03-23T14:25:16;6.03;;;1.83;;
2784;SDS011;57944;48.722;9.316;2024-03-23T14:27:43;3.03;;;1.50;;
2784;SDS011;57944;48.722;9.316;2024-03-23T14:30:11;11.00;;;1.93;;
2784;SDS011;57944;48.722;9.316;2024-03-23T14:32:38;3.07;;;1.80;;
2784;SDS011;57944;48.722;9.316;2024-03-23T14:35:08;4.40;;;1.80;;
2784;SDS011;57944;48.722;9.316;2024-03-23T14:37:35;4.55;;;2.50;;
2784;SDS011;57944;48.722;9.316;2024-03-23T14:40:03;4.03;;;1.80;;
2784;SDS011;57944;48.722;9.316;2024-03-23T14:42:31;4.60;;;1.23;;
2784;SDS011;57944;48.722;9.316;2024-03-23T14:44:58;2.33;;;1.20;;
2784;SDS011;57944;48.722;9.316;2024-03-23T14:47:25;3.00;;;1.43;;
2784;SDS011;57944;48.722;9.316;2024-03-23T14:49:52;4.70;;;1.90;;
2784;SDS011;57944;48.722;9.316;2024-03-23T14:52:21;2.20;;;1.00;;
2784;SDS011;57944;48.722;9.316;2024-03-23T14:54:48;2.90;;;1.20;;
2784;SDS011;57944;48.722;9.316;2024-03-23T14:57:15;6.30;;;1.53;;
2784;SDS011;57944;48.722;9.316;2024-03-23T14:59:42;2.70;;;1.50;;
2784;SDS011;57944;48.722;9.316;2024-03-23T15:02:09;4.20;;;1.27;;
2784;SDS011;57944;48.722;9.316;2024-03-23T15:04:36;3.60;;;1.53;;
2784;SDS011;57944;48.722;9.316;2024-03-23T15:07:03;6.73;;;1.80;;
2784;SDS011;57944;48.722;9.316;2024-03-23T15:09:33;4.87;;;1.70;;
2784;SDS011;57944;48.722;9.316;2024-03-23T15:11:59;5.80;;;1.57;;
2784;SDS011;57944;48.722;9.316;2024-03-23T15:14:26;3.83;;;1.20;;
2784;SDS011;57944;48.722;9.316;2024-03-23T15:16:53;4.03;;;1.70;;
2784;SDS011;57944;48.722;9.316;2024-03-23T15:19:20;2.20;;;1.10;;
2784;SDS011;57944;48.722;9.316;2024-03-23T15:21:47;3.00;;;1.43;;
2784;SDS011;57944;48.722;9.316;2024-03-23T15:24:14;2.53;;;1.20;;
2784;SDS011;57944;48.722;9.316;2024-03-23T15:26:43;2.70;;;1.23;;
2784;SDS011;57944;48.722;9.316;2024-03-23T15:29:10;2.10;;;1.20;;
2784;SDS011;57944;48.722;9.316;2024-03-23T15:31:37;2.70;;;1.20;;
2784;SDS011;57944;48.722;9.316;2024-03-23T15:34:04;3.30;;;1.00;;
2784;SDS011;57944;48.722;9.316;2024-03-23T15:36:31;6.87;;;2.10;;
2784;SDS011;57944;48.722;9.316;2024-03-23T15:38:58;5.50;;;1.60;;
2784;SDS011;57944;48.722;9.316;2024-03-23T15:41:24;3.27;;;1.20;;
2784;SDS011;57944;48.722;9.316;2024-03-23T15:43:54;2.57;;;1.13;;
2784;SDS011;57944;48.722;9.316;2024-03-23T15:46:21;5.07;;;1.10;;
2784;SDS011;57944;48.722;9.316;2024-03-23T15:48:48;4.77;;;1.80;;
2784;SDS011;57944;48.722;9.316;2024-03-23T15:51:15;2.77;;;0.97;;
2784;SDS011;57944;48.722;9.316;2024-03-23T15:53:41;1.97;;;0.90;;
2784;SDS011;57944;48.722;9.316;2024-03-23T15:56:08;4.10;;;1.43;;
2784;SDS011;57944;48.722;9.316;2024-03-23T15:58:35;6.37;;;1.47;;
2784;SDS011;57944;48.722;9.316;2024-03-23T16:01:06;4.80;;;1.10;;
2784;SDS011;57944;48.722;9.316;2024-03-23T16:03:34;3.20;;;1.40;;
2784;SDS011;57944;48.722;9.316;2024-03-23T16:06:02;2.87;;;1.10;;
2784;SDS011;57944;48.722;9.316;2024-03-23T16:08:30;3.67;;;1.83;;